Terminal Aerodrome Forecast
Issued by NWS Binghamton, NY

Home | Current Version | Previous Version | Text Only | Print | Product List | Glossary On
Versions: 1 2 3 4 5 6 7 8 9 10 11 12 13 14 15 16 17 18 19
000
FTUS41 KBGM 180900 AAA
TAFSYR
TAF AMD
KSYR 180912Z 1809/1906 26014KT 6SM -SN SCT012 OVC020
      TEMPO 1810/1812 2SM -SHSN OVC012
     FM181200 28014KT 4SM -SN OVC012
     FM190000 30012KT P6SM -SN OVC020=

USA.gov is the U.S. government's official web portal to all federal, state and local government web resources and services.